createdAt,value
2023-05-14T00:04:28.504Z,10.51855
2023-05-14T00:09:40.675Z,10.52927
2023-05-14T00:14:52.854Z,10.52927
2023-05-14T00:20:05.020Z,10.6258
2023-05-14T00:25:17.265Z,10.6687
2023-05-14T00:30:29.466Z,10.7545
2023-05-14T00:35:42.042Z,10.7974
2023-05-14T00:40:54.236Z,10.85103
2023-05-14T00:46:06.874Z,10.85103
2023-05-14T00:51:18.992Z,10.89393
2023-05-14T00:56:31.254Z,10.89393
2023-05-14T01:01:43.480Z,10.87248
2023-05-14T01:06:56.046Z,10.81885
2023-05-14T01:12:08.518Z,10.7974
2023-05-14T01:17:20.634Z,10.77595
2023-05-14T01:22:32.953Z,10.73305
2023-05-14T01:27:45.065Z,10.70087
2023-05-14T01:32:57.284Z,10.6687
2023-05-14T01:38:09.907Z,10.6687
2023-05-14T01:43:22.017Z,10.69015
2023-05-14T01:48:34.365Z,10.70087
2023-05-14T01:53:46.479Z,10.65797
2023-05-14T01:58:58.783Z,10.61507
2023-05-14T02:04:10.916Z,10.59362
2023-05-14T02:09:23.050Z,10.50782
2023-05-14T02:14:35.161Z,10.40057
2023-05-14T02:19:47.266Z,10.30405
2023-05-14T02:24:59.437Z,10.111
2023-05-14T02:30:11.551Z,9.917942
2023-05-14T02:35:24.253Z,9.735619
2023-05-14T02:40:36.365Z,9.521114
2023-05-14T02:45:48.636Z,9.381687
2023-05-14T02:51:00.848Z,9.242264
2023-05-14T02:56:12.955Z,9.177914
2023-05-14T03:01:25.163Z,9.167187
2023-05-14T03:06:37.911Z,9.124287
2023-05-14T03:11:50.016Z,9.285164
2023-05-14T03:17:02.177Z,9.403141
2023-05-14T03:22:14.500Z,9.478214
2023-05-14T03:27:26.608Z,9.574741
2023-05-14T03:32:38.799Z,9.628365
2023-05-14T03:37:50.995Z,9.671268
2023-05-14T03:43:03.109Z,9.714169
2023-05-14T03:48:15.271Z,9.757069
2023-05-14T03:53:27.550Z,9.778519
2023-05-14T03:58:39.696Z,9.789242
2023-05-14T04:03:51.967Z,9.799969
2023-05-14T04:09:04.343Z,9.810692
2023-05-14T04:14:16.518Z,9.810692
2023-05-14T04:19:28.645Z,9.832142
2023-05-14T04:24:40.702Z,9.864319
2023-05-14T04:29:52.818Z,9.864319
2023-05-14T04:35:05.181Z,9.864319
2023-05-14T04:40:17.533Z,9.875042
2023-05-14T04:45:30.533Z,9.885769
2023-05-14T04:50:43.611Z,9.875042
2023-05-14T04:55:55.657Z,9.875042
2023-05-14T05:01:07.842Z,9.885769
2023-05-14T05:06:19.978Z,9.907219
2023-05-14T05:11:32.080Z,9.928669
2023-05-14T05:16:44.215Z,9.960846
2023-05-14T05:21:56.375Z,10.01447
2023-05-14T05:27:08.789Z,10.10027
2023-05-14T05:32:21.022Z,10.1968
2023-05-14T05:37:33.191Z,10.31477
2023-05-14T05:42:45.556Z,10.4113
2023-05-14T05:47:57.740Z,10.4971
2023-05-14T05:53:14.260Z,10.57217
2023-05-14T05:58:26.374Z,10.6258
2023-05-14T06:03:38.599Z,10.70087
2023-05-14T06:08:50.771Z,10.73305
2023-05-14T06:14:02.927Z,10.77595
2023-05-14T06:19:15.148Z,10.82958
2023-05-14T06:24:27.313Z,10.94755
2023-05-14T06:29:39.504Z,11.02263
2023-05-14T06:34:52.008Z,11.10843
2023-05-14T06:40:04.119Z,11.19423
2023-05-14T06:45:16.224Z,11.26931
2023-05-14T06:50:28.351Z,11.38728
2023-05-14T06:55:40.470Z,11.53743
2023-05-14T07:00:52.583Z,11.67686
2023-05-14T07:06:04.796Z,11.85919
2023-05-14T07:11:16.902Z,12.12732
2023-05-14T07:16:29.084Z,12.38472
2023-05-14T07:21:41.245Z,12.57777
2023-05-14T07:26:53.339Z,12.74937
2023-05-14T07:32:05.465Z,12.8888
2023-05-14T07:37:17.566Z,12.96387
2023-05-14T07:42:36.040Z,13.13547
2023-05-14T07:47:49.527Z,13.4465
2023-05-14T07:53:01.762Z,13.62883
2023-05-14T07:58:13.888Z,13.89695
2023-05-14T08:03:26.052Z,14.02566
2023-05-14T08:08:38.278Z,14.09001
2023-05-14T08:13:50.404Z,14.26161
2023-05-14T08:19:02.551Z,14.36886
2023-05-14T08:24:14.924Z,14.70134
2023-05-14T08:29:27.115Z,15.16252
2023-05-14T08:34:39.218Z,15.7953
2023-05-14T08:39:51.335Z,16.23503
2023-05-14T08:45:03.487Z,17.10376
2023-05-14T08:50:16.742Z,17.72581
2023-05-14T08:55:28.840Z,18.5302
2023-05-14T09:00:41.048Z,18.92702
2023-05-14T09:05:53.157Z,19.19515
2023-05-14T09:11:07.553Z,19.61343
2023-05-14T09:16:19.770Z,19.92446
2023-05-14T09:21:33.605Z,20.19259
2023-05-14T09:26:45.869Z,20.22476
2023-05-14T09:31:58.146Z,19.64561
2023-05-14T09:37:10.397Z,19.54908
2023-05-14T09:42:22.572Z,19.58126
2023-05-14T09:47:34.788Z,20.33202
2023-05-14T09:52:46.974Z,20.25694
2023-05-14T09:57:59.213Z,20.25694
2023-05-14T10:03:11.468Z,20.21404
2023-05-14T10:08:25.230Z,19.96736
2023-05-14T10:13:37.348Z,19.80648
2023-05-14T10:18:50.531Z,19.38821
2023-05-14T10:24:02.709Z,19.15225
2023-05-14T10:29:15.012Z,18.7876
2023-05-14T10:34:27.141Z,19.22733
2023-05-14T10:39:39.438Z,19.55981
2023-05-14T10:44:51.619Z,19.84939
2023-05-14T10:50:05.374Z,20.17113
2023-05-14T10:55:18.490Z,20.48216
2023-05-14T11:00:30.601Z,20.78247
2023-05-14T11:05:43.221Z,20.76102
2023-05-14T11:10:55.498Z,20.94334
2023-05-14T11:21:33.097Z,20.23549
2023-05-14T11:26:45.485Z,19.89229
2023-05-14T11:31:57.729Z,20.03171
2023-05-14T11:37:10.059Z,20.07461
2023-05-14T11:42:22.264Z,20.25694
2023-05-14T11:47:35.039Z,20.34274
2023-05-14T11:52:47.168Z,20.33202
2023-05-14T11:57:59.295Z,20.81464
2023-05-14T12:03:11.564Z,21.20074
2023-05-14T12:08:23.759Z,20.64304
2023-05-14T12:13:35.878Z,20.53579
2023-05-14T12:18:48.098Z,20.02099
2023-05-14T12:24:00.269Z,20.04243
2023-05-14T12:29:12.393Z,19.97809
2023-05-14T12:34:24.611Z,20.25694
2023-05-14T12:39:36.732Z,20.48216
2023-05-14T12:44:48.854Z,20.37492
2023-05-14T12:50:00.970Z,19.70996
2023-05-14T12:55:13.078Z,19.36675
2023-05-14T13:00:26.177Z,18.64817
2023-05-14T13:05:38.651Z,17.87597
2023-05-14T13:10:50.871Z,17.54349
2023-05-14T13:16:03.584Z,17.46841
2023-05-14T13:21:15.712Z,17.55421
2023-05-14T13:26:27.844Z,17.29681
2023-05-14T13:31:40.037Z,17.09303
2023-05-14T13:36:52.233Z,17.05013
2023-05-14T13:42:04.365Z,17.07158
2023-05-14T13:47:16.532Z,17.22173
2023-05-14T13:52:33.781Z,17.55421
2023-05-14T13:57:45.937Z,18.07974
2023-05-14T14:02:58.611Z,18.3586
2023-05-14T14:08:22.530Z,18.2728
2023-05-14T14:13:35.855Z,17.96177
2023-05-14T14:18:48.007Z,18.07974
2023-05-14T14:24:00.150Z,17.83307
2023-05-14T14:29:12.264Z,17.66146
2023-05-14T14:34:24.511Z,17.61856
2023-05-14T14:39:36.715Z,17.51131
2023-05-14T14:44:48.817Z,17.57566
2023-05-14T14:50:00.919Z,17.97249
2023-05-14T14:55:13.111Z,18.00467
2023-05-14T15:00:25.253Z,18.17627
2023-05-14T15:05:37.373Z,18.34787
2023-05-14T15:10:49.481Z,18.59455
2023-05-14T15:16:01.591Z,18.7018
2023-05-14T15:21:13.703Z,19.28095
2023-05-14T15:26:25.827Z,19.27023
2023-05-14T15:31:38.050Z,19.10935
2023-05-14T15:36:50.251Z,19.28095
2023-05-14T15:42:02.428Z,19.46328
2023-05-14T15:47:14.612Z,19.62416
2023-05-14T15:52:26.722Z,20.08533
2023-05-14T15:57:38.820Z,20.34274
2023-05-14T16:02:50.977Z,20.53579
2023-05-14T16:08:03.134Z,20.63232
2023-05-14T16:13:15.246Z,20.08533
2023-05-14T16:18:27.406Z,19.72068
2023-05-14T16:23:39.520Z,19.37748
2023-05-14T16:28:51.705Z,18.75542
2023-05-14T16:34:03.824Z,18.50874
2023-05-14T16:39:15.938Z,18.03684
2023-05-14T16:44:28.082Z,17.92959
2023-05-14T16:49:40.182Z,17.85452
2023-05-14T16:54:52.282Z,17.70436
2023-05-14T17:00:04.730Z,17.38261
2023-05-14T17:05:16.850Z,17.45769
2023-05-14T17:10:28.963Z,17.26463
2023-05-14T17:15:41.105Z,17.17883
2023-05-14T17:20:53.417Z,17.00723
2023-05-14T17:26:05.641Z,16.86781
2023-05-14T17:31:17.809Z,16.82491
2023-05-14T17:36:30.066Z,16.97506
2023-05-14T17:41:42.190Z,16.95361
2023-05-14T17:46:54.359Z,16.79273
2023-05-14T17:52:06.551Z,16.69621
2023-05-14T17:57:18.658Z,16.58895
2023-05-14T18:02:30.823Z,16.40663
2023-05-14T18:07:42.973Z,16.1385
2023-05-14T18:12:55.081Z,16.03125
2023-05-14T18:18:07.353Z,15.7953
2023-05-14T18:23:19.763Z,15.57007
2023-05-14T18:28:31.878Z,15.29122
2023-05-14T18:33:43.974Z,14.95874
2023-05-14T18:38:57.796Z,14.59409
2023-05-14T18:44:10.048Z,14.31524
2023-05-14T18:49:22.876Z,13.99348
2023-05-14T18:54:34.990Z,13.68245
2023-05-14T18:59:48.902Z,13.2749
2023-05-14T19:05:01.048Z,12.96387
2023-05-14T19:10:13.628Z,12.66357
2023-05-14T19:15:26.037Z,12.42762
2023-05-14T19:20:38.373Z,12.17022
2023-05-14T19:25:50.491Z,11.88064
2023-05-14T19:31:02.614Z,11.64468
2023-05-14T19:36:14.740Z,11.41946
2023-05-14T19:41:26.832Z,11.21568
2023-05-14T19:46:39.051Z,11.00118
2023-05-14T19:51:51.162Z,10.72232
2023-05-14T19:57:03.275Z,10.4971
2023-05-14T20:02:15.455Z,10.2826
2023-05-14T20:07:27.678Z,10.13245
2023-05-14T20:12:39.776Z,9.971569
2023-05-14T20:17:51.912Z,9.917942
2023-05-14T20:23:04.573Z,9.917942
2023-05-14T20:28:16.687Z,9.950119
2023-05-14T20:33:28.990Z,9.960846
2023-05-14T20:38:41.126Z,9.939396
2023-05-14T20:43:53.246Z,9.907219
2023-05-14T20:49:05.350Z,9.832142
2023-05-14T20:54:17.520Z,9.875042
2023-05-14T20:59:29.631Z,10.01447
2023-05-14T21:04:41.851Z,10.01447
2023-05-14T21:09:54.130Z,10.08955
2023-05-14T21:15:08.363Z,10.0681
2023-05-14T21:20:20.536Z,9.950119
2023-05-14T21:25:32.724Z,9.821419
2023-05-14T21:30:44.905Z,9.692719
2023-05-14T21:35:57.149Z,9.553291
2023-05-14T21:41:09.449Z,9.435314
2023-05-14T21:46:21.556Z,9.274437
2023-05-14T21:51:33.668Z,9.11356
2023-05-14T21:56:45.959Z,8.984859
2023-05-14T22:02:06.923Z,8.877609
2023-05-14T22:07:19.645Z,8.770359
2023-05-14T22:12:31.746Z,8.673832
2023-05-14T22:17:43.969Z,8.588032
2023-05-14T22:22:56.106Z,8.491505
2023-05-14T22:28:08.350Z,8.394981
2023-05-14T22:33:20.690Z,8.309177
2023-05-14T22:38:32.887Z,8.201927
2023-05-14T22:43:45.073Z,8.083954
2023-05-14T22:48:57.169Z,7.987427
2023-05-14T22:54:09.337Z,7.858727
2023-05-14T22:59:23.548Z,7.740749
2023-05-14T23:04:36.161Z,7.654949
2023-05-14T23:09:48.452Z,7.536972
2023-05-14T23:15:00.549Z,7.472622
2023-05-14T23:20:12.788Z,7.397545
2023-05-14T23:25:25.442Z,7.376095
2023-05-14T23:30:37.913Z,7.290295
2023-05-14T23:35:50.661Z,7.215218
2023-05-14T23:41:02.885Z,7.354645
2023-05-14T23:46:15.089Z,7.268845
2023-05-14T23:51:27.217Z,7.140144
2023-05-14T23:56:39.456Z,6.957817
